Pana, Illinois
Current Conditions -  °F | °C
As of 12:35 PM on Friday 31 Oct 2014 (Local Time) from KTAZ Reporting Station
Overcast Overcast  
Wind Chill: -1°   Ceiling: 3600
Heat Index:   Visibility: 10mi
Dew Point: -2°   Wind: 25mph
Humidity: 61%   Direction: 340°NNW
Pressure: 30.24"   Gusts: 33mph
Location:  39.39°N, 89.08°W
Report Text: KTAZ 311735Z AUTO 34022G29KT 10SM OVC036 05/M02 A3024 RMK AO2
Loading
Personal Weather Stations






























Interactive Weather Map
Tropical Storm Tracking
New forecast layout! Learn more

10-Day Weather Forecast

Advertisements
Track Severe Weather on mobile